KRCR/RCR METAR and TAF weather

Enter ICAO airport designator
Station Type Date Time Source
KRCR METAR 2020/08/10 18:15 UTC NOAA

KRCR 101815Z AUTO 19007KT 10SM SCT024 30/23 A2995 RMK AO2


Station Type Date Time Source
KRCR Decoded METAR 2020/08/10 18:15 UTC NOAA

Station name not available
Aug 10, 2020 - 02:15 PM EDT / 2020.08.10 1815 UTC
Wind: from the S (190 degrees) at 8 MPH (7 KT):0
Visibility: 10 mile(s):0
Sky conditions: partly cloudy
Temperature: 86 F (30 C)
Heat index: 93.4 F (34.1 C):1
Dew Point: 73 F (23 C)
Relative Humidity: 66%
Pressure (altimeter): 29.95 in. Hg (1014 hPa)
ob: KRCR 101815Z AUTO 19007KT 10SM SCT024 30/23 A2995 RMK AO2
cycle: 18

Station Type Date Time Source
KRCR TAF UTC NOAA

Error!

Example: see airport list